Airfield :
LOGIN :

Register | Disclaimer

   EN    FR    IT 

 










Legend :    VFR   Marginal VFR   IFR   Intensive IFR   Very Intensive IFR
Visi :
Ceiling :
>= 8 km
>= 3000ft
5 to 8 km
1000 to 3000 ft
1500m to 5 km
500 to 1000 ft
800 to 1500m
200 to 500 ft
< 800m
< 200 ft
Symbols :   Thunderstorms  Fog  Heavy snow  Heavy precipitations  Wind > 20 kt
SIGMETs :     Misc.  Thunderstorms  Icing  Turbulence  Mountain Waves  Volcanic Ashes






- Airport Elevation : 466 ft


LHPA - Pápa

CURRENT METAR :
  • 231615Z VRB04KT CAVOK 23/12 Q1014 NOSIG RMK BLU

EXPIRED METARs :
  • 231545Z VRB03KT CAVOK 24/11 Q1014 NOSIG RMK BLU
  • 231515Z 30005KT 260V020 CAVOK 24/11 Q1014 NOSIG RMK BLU
  • 231445Z 30006KT 250V360 CAVOK 23/11 Q1014 NOSIG RMK BLU
  • 231415Z 28006KT 230V320 CAVOK 23/11 Q1014 NOSIG RMK BLU
  • 231345Z 03005KT 340V080 CAVOK 23/11 Q1014 NOSIG RMK BLU
  • 231315Z 32004KT 270V030 CAVOK 24/11 Q1014 NOSIG RMK BLU
  • 231245Z 32005KT 290V350 9999 SCT043 BKN200 23/12 Q1015 NOSIG RMK BLU
  • 231215Z 34004KT 260V050 9999 SCT043 BKN200 23/12 Q1015 NOSIG RMK BLU
  • 231145Z 34007KT 260V050 9999 SCT043 BKN200 23/13 Q1015 NOSIG RMK BLU

TAF TAF LHPA
Valid from the 23 at 12:00 until the 24 at 12:00 UTC


231115Z 2312/2412 33009KT CAVOK
BECMG 2312/2315 VRB03KT
TEMPO 2312/2315 9999 FEW040TCU
PROB30
TEMPO 2315/2321 8000 SHRA -TSRA FEW040CB BKN050TCU
PROB40
TEMPO 2403/2412 VRB14G25KT 6000 SHRA -TSRA SCT040CB BKN050TCU



MET'MAP, your aeronautical weather chart ! - Copyright ORBIFLY December 2007 - Disclaimer

ORBIFLY MET'MAP TEAM :

Programming & Development : Alexandra Zaïnal
Original concept : Baudouin d'Aumeries
Technical & hardware support : Manuel Goepfert
Assistance : Marc-Olivier Méhu




SOURCES & CREDITS :

   NOAA